sensor_id;sensor_type;location;lat;lon;timestamp;pressure;altitude;pressure_sealevel;temperature;humidity
47753;BME280;2038;51.728;6.674;2023-06-22T00:00:59;101221.19;;;22.02;91.76
47753;BME280;2038;51.728;6.674;2023-06-22T00:03:26;101224.69;;;22.04;91.62
47753;BME280;2038;51.728;6.674;2023-06-22T00:05:53;101222.78;;;21.97;91.83
47753;BME280;2038;51.728;6.674;2023-06-22T00:08:19;101221.00;;;21.95;92.10
47753;BME280;2038;51.728;6.674;2023-06-22T00:10:46;101212.25;;;21.92;92.18
47753;BME280;2038;51.728;6.674;2023-06-22T00:13:13;101215.88;;;21.98;91.98
47753;BME280;2038;51.728;6.674;2023-06-22T00:15:41;101220.06;;;21.92;91.93
47753;BME280;2038;51.728;6.674;2023-06-22T00:18:08;101200.88;;;21.89;92.43
47753;BME280;2038;51.728;6.674;2023-06-22T00:20:36;101210.25;;;21.84;92.39
47753;BME280;2038;51.728;6.674;2023-06-22T00:23:04;101214.50;;;21.80;93.12
47753;BME280;2038;51.728;6.674;2023-06-22T00:25:36;101214.34;;;21.76;93.17
47753;BME280;2038;51.728;6.674;2023-06-22T00:28:06;101202.28;;;21.76;92.93
47753;BME280;2038;51.728;6.674;2023-06-22T00:30:33;101211.84;;;21.79;92.67
47753;BME280;2038;51.728;6.674;2023-06-22T00:33:01;101215.09;;;21.70;93.40
47753;BME280;2038;51.728;6.674;2023-06-22T00:35:27;101219.41;;;21.70;93.46
47753;BME280;2038;51.728;6.674;2023-06-22T00:37:58;101216.75;;;21.68;93.67
47753;BME280;2038;51.728;6.674;2023-06-22T00:40:31;101215.72;;;21.63;93.53
47753;BME280;2038;51.728;6.674;2023-06-22T00:42:59;101213.47;;;21.74;92.97
47753;BME280;2038;51.728;6.674;2023-06-22T00:45:27;101216.25;;;21.81;92.65
47753;BME280;2038;51.728;6.674;2023-06-22T00:47:58;101209.22;;;21.77;93.26
47753;BME280;2038;51.728;6.674;2023-06-22T00:50:26;101196.03;;;21.70;93.25
47753;BME280;2038;51.728;6.674;2023-06-22T00:52:58;101197.78;;;21.71;93.19
47753;BME280;2038;51.728;6.674;2023-06-22T00:55:26;101195.03;;;21.65;93.34
47753;BME280;2038;51.728;6.674;2023-06-22T00:57:53;101194.03;;;21.60;93.46
47753;BME280;2038;51.728;6.674;2023-06-22T01:00:25;101194.84;;;21.59;93.14
47753;BME280;2038;51.728;6.674;2023-06-22T01:02:53;101181.59;;;21.48;93.77
47753;BME280;2038;51.728;6.674;2023-06-22T01:05:21;101187.72;;;21.50;93.47
47753;BME280;2038;51.728;6.674;2023-06-22T01:08:23;101180.00;;;21.53;93.43
47753;BME280;2038;51.728;6.674;2023-06-22T01:11:20;101181.66;;;21.50;93.52
47753;BME280;2038;51.728;6.674;2023-06-22T01:14:26;101191.06;;;21.46;93.64
47753;BME280;2038;51.728;6.674;2023-06-22T01:17:00;101188.00;;;21.61;92.91
47753;BME280;2038;51.728;6.674;2023-06-22T01:19:50;101188.06;;;21.64;92.27
47753;BME280;2038;51.728;6.674;2023-06-22T01:22:28;101188.53;;;21.49;93.03
47753;BME280;2038;51.728;6.674;2023-06-22T01:27:59;101182.28;;;21.42;93.53
47753;BME280;2038;51.728;6.674;2023-06-22T01:30:41;101177.00;;;21.39;93.37
47753;BME280;2038;51.728;6.674;2023-06-22T01:33:11;101176.88;;;21.35;93.49
47753;BME280;2038;51.728;6.674;2023-06-22T01:35:40;101180.41;;;21.37;93.41
47753;BME280;2038;51.728;6.674;2023-06-22T01:38:07;101182.06;;;21.35;93.29
47753;BME280;2038;51.728;6.674;2023-06-22T01:40:36;101174.34;;;21.36;93.01
47753;BME280;2038;51.728;6.674;2023-06-22T01:43:04;101173.47;;;21.36;92.89
47753;BME280;2038;51.728;6.674;2023-06-22T01:45:31;101171.59;;;21.30;93.22
47753;BME280;2038;51.728;6.674;2023-06-22T01:47:58;101175.91;;;21.30;92.92
47753;BME280;2038;51.728;6.674;2023-06-22T01:50:26;101174.81;;;21.23;93.11
47753;BME280;2038;51.728;6.674;2023-06-22T01:52:52;101170.59;;;21.27;93.28
47753;BME280;2038;51.728;6.674;2023-06-22T01:55:18;101162.75;;;21.24;93.23
47753;BME280;2038;51.728;6.674;2023-06-22T01:57:44;101156.53;;;21.19;93.66
47753;BME280;2038;51.728;6.674;2023-06-22T02:00:18;101166.81;;;21.16;93.76
47753;BME280;2038;51.728;6.674;2023-06-22T02:02:59;101168.25;;;21.06;94.27
47753;BME280;2038;51.728;6.674;2023-06-22T02:05:36;101166.50;;;21.07;94.21
47753;BME280;2038;51.728;6.674;2023-06-22T02:08:16;101161.22;;;21.02;95.03
47753;BME280;2038;51.728;6.674;2023-06-22T02:10:50;101169.91;;;21.04;94.82
47753;BME280;2038;51.728;6.674;2023-06-22T02:13:19;101161.25;;;21.03;94.78
47753;BME280;2038;51.728;6.674;2023-06-22T02:15:47;101165.66;;;21.06;94.40
47753;BME280;2038;51.728;6.674;2023-06-22T02:18:14;101166.41;;;21.02;94.57
47753;BME280;2038;51.728;6.674;2023-06-22T02:20:41;101170.72;;;21.03;94.66
47753;BME280;2038;51.728;6.674;2023-06-22T02:23:08;101170.69;;;21.01;94.82
47753;BME280;2038;51.728;6.674;2023-06-22T02:25:35;101165.41;;;20.98;95.05
47753;BME280;2038;51.728;6.674;2023-06-22T02:28:02;101163.69;;;20.99;95.22
47753;BME280;2038;51.728;6.674;2023-06-22T02:30:28;101164.41;;;20.93;95.64
47753;BME280;2038;51.728;6.674;2023-06-22T02:32:55;101162.59;;;20.91;95.47
47753;BME280;2038;51.728;6.674;2023-06-22T02:35:25;101154.72;;;20.88;95.88
47753;BME280;2038;51.728;6.674;2023-06-22T02:37:52;101149.53;;;20.88;96.06
47753;BME280;2038;51.728;6.674;2023-06-22T02:40:18;101150.28;;;20.84;96.16
47753;BME280;2038;51.728;6.674;2023-06-22T02:42:45;101151.81;;;20.77;97.20
47753;BME280;2038;51.728;6.674;2023-06-22T02:45:11;101158.63;;;20.74;97.14
47753;BME280;2038;51.728;6.674;2023-06-22T02:47:37;101155.19;;;20.75;97.61
47753;BME280;2038;51.728;6.674;2023-06-22T02:50:03;101154.34;;;20.76;97.36
47753;BME280;2038;51.728;6.674;2023-06-22T02:52:30;101152.59;;;20.75;97.59
47753;BME280;2038;51.728;6.674;2023-06-22T02:54:56;101150.97;;;20.78;97.70
47753;BME280;2038;51.728;6.674;2023-06-22T02:57:22;101154.28;;;20.73;98.31
47753;BME280;2038;51.728;6.674;2023-06-22T02:59:48;101150.78;;;20.72;98.27
47753;BME280;2038;51.728;6.674;2023-06-22T03:02:15;101151.59;;;20.70;98.88
47753;BME280;2038;51.728;6.674;2023-06-22T03:04:41;101148.19;;;20.72;98.44
47753;BME280;2038;51.728;6.674;2023-06-22T03:07:08;101144.00;;;20.76;98.29
47753;BME280;2038;51.728;6.674;2023-06-22T03:09:34;101146.59;;;20.76;98.26
47753;BME280;2038;51.728;6.674;2023-06-22T03:12:00;101143.75;;;20.68;99.17
47753;BME280;2038;51.728;6.674;2023-06-22T03:14:29;101142.78;;;20.65;99.59
47753;BME280;2038;51.728;6.674;2023-06-22T03:16:55;101135.91;;;20.65;98.88
47753;BME280;2038;51.728;6.674;2023-06-22T03:19:27;101141.97;;;20.66;99.13
47753;BME280;2038;51.728;6.674;2023-06-22T03:21:55;101138.50;;;20.65;98.80
47753;BME280;2038;51.728;6.674;2023-06-22T03:24:21;101132.44;;;20.65;99.32
47753;BME280;2038;51.728;6.674;2023-06-22T03:26:47;101133.25;;;20.64;99.13
47753;BME280;2038;51.728;6.674;2023-06-22T03:29:14;101127.19;;;20.63;99.16
47753;BME280;2038;51.728;6.674;2023-06-22T03:31:41;101123.59;;;20.58;99.23
47753;BME280;2038;51.728;6.674;2023-06-22T03:34:07;101126.97;;;20.55;99.63
47753;BME280;2038;51.728;6.674;2023-06-22T03:36:34;101120.72;;;20.49;100.00
47753;BME280;2038;51.728;6.674;2023-06-22T03:39:00;101122.38;;;20.47;100.00
47753;BME280;2038;51.728;6.674;2023-06-22T03:41:26;101123.22;;;20.46;100.00
47753;BME280;2038;51.728;6.674;2023-06-22T03:43:53;101111.84;;;20.42;100.00
47753;BME280;2038;51.728;6.674;2023-06-22T03:46:19;101116.28;;;20.45;100.00
47753;BME280;2038;51.728;6.674;2023-06-22T03:48:46;101119.59;;;20.41;100.00
47753;BME280;2038;51.728;6.674;2023-06-22T03:51:12;101110.94;;;20.40;100.00
47753;BME280;2038;51.728;6.674;2023-06-22T03:53:38;101109.16;;;20.38;100.00
47753;BME280;2038;51.728;6.674;2023-06-22T03:56:04;101109.00;;;20.33;100.00
47753;BME280;2038;51.728;6.674;2023-06-22T03:58:30;101100.34;;;20.33;100.00
47753;BME280;2038;51.728;6.674;2023-06-22T04:00:58;101109.03;;;20.35;100.00
47753;BME280;2038;51.728;6.674;2023-06-22T04:03:26;101110.84;;;20.37;100.00
47753;BME280;2038;51.728;6.674;2023-06-22T04:05:52;101107.56;;;20.43;100.00
47753;BME280;2038;51.728;6.674;2023-06-22T04:08:18;101097.59;;;20.55;100.00
47753;BME280;2038;51.728;6.674;2023-06-22T04:10:44;101106.59;;;20.68;100.00
47753;BME280;2038;51.728;6.674;2023-06-22T04:13:11;101097.94;;;20.66;100.00
47753;BME280;2038;51.728;6.674;2023-06-22T04:15:37;101097.88;;;20.64;100.00
47753;BME280;2038;51.728;6.674;2023-06-22T04:18:03;101098.00;;;20.69;100.00
47753;BME280;2038;51.728;6.674;2023-06-22T04:20:31;101112.97;;;20.77;100.00
47753;BME280;2038;51.728;6.674;2023-06-22T04:22:57;101108.69;;;20.79;100.00
47753;BME280;2038;51.728;6.674;2023-06-22T04:25:24;101102.00;;;20.86;100.00
47753;BME280;2038;51.728;6.674;2023-06-22T04:27:50;101111.63;;;20.91;100.00
47753;BME280;2038;51.728;6.674;2023-06-22T04:30:16;101101.56;;;21.00;100.00
47753;BME280;2038;51.728;6.674;2023-06-22T04:32:44;101104.28;;;21.05;100.00
47753;BME280;2038;51.728;6.674;2023-06-22T04:35:11;101104.44;;;21.11;100.00
47753;BME280;2038;51.728;6.674;2023-06-22T04:37:38;101097.16;;;21.26;100.00
47753;BME280;2038;51.728;6.674;2023-06-22T04:40:05;101100.81;;;21.34;100.00
47753;BME280;2038;51.728;6.674;2023-06-22T04:42:35;101094.06;;;21.41;99.39
47753;BME280;2038;51.728;6.674;2023-06-22T04:45:02;101103.84;;;21.51;98.85
47753;BME280;2038;51.728;6.674;2023-06-22T04:47:29;101112.00;;;21.65;98.49
47753;BME280;2038;51.728;6.674;2023-06-22T04:49:56;101101.63;;;21.65;98.18
47753;BME280;2038;51.728;6.674;2023-06-22T04:52:22;101105.13;;;21.67;98.45
47753;BME280;2038;51.728;6.674;2023-06-22T04:54:48;101100.06;;;21.71;98.22
47753;BME280;2038;51.728;6.674;2023-06-22T04:57:21;101102.06;;;21.81;97.73
47753;BME280;2038;51.728;6.674;2023-06-22T04:59:56;101097.03;;;21.87;97.51
47753;BME280;2038;51.728;6.674;2023-06-22T05:02:22;101086.00;;;21.95;97.02
47753;BME280;2038;51.728;6.674;2023-06-22T05:04:53;101103.44;;;22.00;96.83
47753;BME280;2038;51.728;6.674;2023-06-22T05:07:22;101098.00;;;22.25;96.02
47753;BME280;2038;51.728;6.674;2023-06-22T05:09:51;101102.56;;;22.35;95.99
47753;BME280;2038;51.728;6.674;2023-06-22T05:12:17;101107.53;;;22.62;95.17
47753;BME280;2038;51.728;6.674;2023-06-22T05:14:43;101099.06;;;22.71;94.30
47753;BME280;2038;51.728;6.674;2023-06-22T05:17:10;101104.59;;;22.86;93.78
47753;BME280;2038;51.728;6.674;2023-06-22T05:19:39;101107.97;;;23.22;92.23
47753;BME280;2038;51.728;6.674;2023-06-22T05:22:10;101101.25;;;23.33;90.72
47753;BME280;2038;51.728;6.674;2023-06-22T05:24:38;101093.25;;;23.23;91.03
47753;BME280;2038;51.728;6.674;2023-06-22T05:27:04;101105.38;;;23.22;90.84
47753;BME280;2038;51.728;6.674;2023-06-22T05:29:31;101103.31;;;23.08;91.12
47753;BME280;2038;51.728;6.674;2023-06-22T05:31:57;101104.19;;;23.08;91.54
47753;BME280;2038;51.728;6.674;2023-06-22T05:34:23;101099.72;;;23.01;91.57
47753;BME280;2038;51.728;6.674;2023-06-22T05:36:49;101099.66;;;22.98;91.59
47753;BME280;2038;51.728;6.674;2023-06-22T05:39:16;101092.72;;;22.97;91.40
47753;BME280;2038;51.728;6.674;2023-06-22T05:41:42;101099.66;;;22.98;91.66
47753;BME280;2038;51.728;6.674;2023-06-22T05:44:10;101102.06;;;22.89;91.99
47753;BME280;2038;51.728;6.674;2023-06-22T05:46:36;101116.72;;;22.85;92.57
47753;BME280;2038;51.728;6.674;2023-06-22T05:49:03;101110.38;;;22.73;93.07
47753;BME280;2038;51.728;6.674;2023-06-22T05:51:29;101118.22;;;22.74;93.24
47753;BME280;2038;51.728;6.674;2023-06-22T05:53:55;101117.28;;;22.72;93.73
47753;BME280;2038;51.728;6.674;2023-06-22T05:56:21;101117.44;;;22.78;93.73
47753;BME280;2038;51.728;6.674;2023-06-22T05:58:48;101122.81;;;22.86;93.19
47753;BME280;2038;51.728;6.674;2023-06-22T06:01:14;101120.94;;;22.80;93.95
47753;BME280;2038;51.728;6.674;2023-06-22T06:03:41;101123.44;;;22.76;93.11
47753;BME280;2038;51.728;6.674;2023-06-22T06:06:07;101127.84;;;22.80;93.21
47753;BME280;2038;51.728;6.674;2023-06-22T06:08:34;101120.16;;;22.84;93.11
47753;BME280;2038;51.728;6.674;2023-06-22T06:11:00;101113.34;;;22.91;92.77
47753;BME280;2038;51.728;6.674;2023-06-22T06:13:26;101118.56;;;22.91;92.60
47753;BME280;2038;51.728;6.674;2023-06-22T06:15:52;101110.03;;;22.97;92.09
47753;BME280;2038;51.728;6.674;2023-06-22T06:18:21;101110.41;;;23.15;91.45
47753;BME280;2038;51.728;6.674;2023-06-22T06:20:47;101112.19;;;23.17;91.43
47753;BME280;2038;51.728;6.674;2023-06-22T06:23:13;101119.84;;;23.11;91.08
47753;BME280;2038;51.728;6.674;2023-06-22T06:25:39;101121.66;;;23.14;91.15
47753;BME280;2038;51.728;6.674;2023-06-22T06:28:06;101125.28;;;23.22;90.90
47753;BME280;2038;51.728;6.674;2023-06-22T06:30:32;101112.09;;;23.13;91.63
47753;BME280;2038;51.728;6.674;2023-06-22T06:32:58;101115.38;;;23.03;92.24
47753;BME280;2038;51.728;6.674;2023-06-22T06:35:25;101127.31;;;22.95;92.62
47753;BME280;2038;51.728;6.674;2023-06-22T06:37:51;101114.50;;;23.04;92.10
47753;BME280;2038;51.728;6.674;2023-06-22T06:40:18;101124.25;;;23.15;91.71
47753;BME280;2038;51.728;6.674;2023-06-22T06:42:46;101131.19;;;23.13;91.59
47753;BME280;2038;51.728;6.674;2023-06-22T06:45:21;101129.94;;;22.95;92.28
47753;BME280;2038;51.728;6.674;2023-06-22T06:47:52;101132.63;;;23.01;92.30
47753;BME280;2038;51.728;6.674;2023-06-22T06:50:18;101135.41;;;23.08;92.81
47753;BME280;2038;51.728;6.674;2023-06-22T06:52:45;101139.03;;;23.15;92.39
47753;BME280;2038;51.728;6.674;2023-06-22T06:55:12;101140.16;;;23.29;92.04
47753;BME280;2038;51.728;6.674;2023-06-22T06:57:40;101139.31;;;23.30;91.54
47753;BME280;2038;51.728;6.674;2023-06-22T07:00:09;101129.81;;;23.32;91.94
47753;BME280;2038;51.728;6.674;2023-06-22T07:02:40;101133.16;;;23.25;92.19
47753;BME280;2038;51.728;6.674;2023-06-22T07:05:09;101127.09;;;23.26;93.03
47753;BME280;2038;51.728;6.674;2023-06-22T07:07:36;101116.94;;;23.40;92.22
47753;BME280;2038;51.728;6.674;2023-06-22T07:10:03;101111.56;;;23.29;92.42
47753;BME280;2038;51.728;6.674;2023-06-22T07:12:31;101108.72;;;23.17;92.92
47753;BME280;2038;51.728;6.674;2023-06-22T07:15:08;101099.22;;;23.20;92.29
47753;BME280;2038;51.728;6.674;2023-06-22T07:17:35;101083.69;;;23.23;92.73
47753;BME280;2038;51.728;6.674;2023-06-22T07:20:03;101085.84;;;23.43;91.98
47753;BME280;2038;51.728;6.674;2023-06-22T07:22:34;101088.53;;;23.49;91.60
47753;BME280;2038;51.728;6.674;2023-06-22T07:25:00;101083.66;;;23.65;91.05
47753;BME280;2038;51.728;6.674;2023-06-22T07:27:27;101090.97;;;23.88;89.69
47753;BME280;2038;51.728;6.674;2023-06-22T07:29:53;101091.59;;;23.73;90.44
47753;BME280;2038;51.728;6.674;2023-06-22T07:32:21;101085.47;;;23.69;90.94
47753;BME280;2038;51.728;6.674;2023-06-22T07:34:47;101083.94;;;23.82;90.30
47753;BME280;2038;51.728;6.674;2023-06-22T07:37:13;101085.53;;;23.75;90.82
47753;BME280;2038;51.728;6.674;2023-06-22T07:39:39;101086.28;;;23.68;90.34
47753;BME280;2038;51.728;6.674;2023-06-22T07:42:06;101086.34;;;23.70;89.95
47753;BME280;2038;51.728;6.674;2023-06-22T07:44:32;101087.19;;;23.69;89.84
47753;BME280;2038;51.728;6.674;2023-06-22T07:46:58;101081.25;;;23.77;89.63
47753;BME280;2038;51.728;6.674;2023-06-22T07:49:24;101075.13;;;23.74;89.78
47753;BME280;2038;51.728;6.674;2023-06-22T07:51:50;101075.09;;;23.71;89.82
47753;BME280;2038;51.728;6.674;2023-06-22T07:54:17;101078.66;;;23.77;89.28
47753;BME280;2038;51.728;6.674;2023-06-22T07:56:43;101079.69;;;23.87;89.24
47753;BME280;2038;51.728;6.674;2023-06-22T07:59:09;101069.38;;;23.93;88.82
47753;BME280;2038;51.728;6.674;2023-06-22T08:01:35;101068.41;;;23.87;89.04
47753;BME280;2038;51.728;6.674;2023-06-22T08:04:02;101065.97;;;23.97;88.95
47753;BME280;2038;51.728;6.674;2023-06-22T08:06:30;101057.41;;;24.06;88.73
47753;BME280;2038;51.728;6.674;2023-06-22T08:08:56;101048.81;;;24.11;88.48
47753;BME280;2038;51.728;6.674;2023-06-22T08:11:24;101054.19;;;24.19;87.59
47753;BME280;2038;51.728;6.674;2023-06-22T08:13:51;101049.94;;;24.26;86.49
47753;BME280;2038;51.728;6.674;2023-06-22T08:16:18;101048.19;;;24.24;86.97
47753;BME280;2038;51.728;6.674;2023-06-22T08:18:44;101044.75;;;24.27;87.13
47753;BME280;2038;51.728;6.674;2023-06-22T08:21:10;101043.06;;;24.31;87.06
47753;BME280;2038;51.728;6.674;2023-06-22T08:23:37;101031.81;;;24.33;87.41
47753;BME280;2038;51.728;6.674;2023-06-22T08:26:03;101026.75;;;24.45;86.98
47753;BME280;2038;51.728;6.674;2023-06-22T08:28:30;101028.66;;;24.57;86.74
47753;BME280;2038;51.728;6.674;2023-06-22T08:30:56;101027.09;;;24.69;86.78
47753;BME280;2038;51.728;6.674;2023-06-22T08:33:22;101030.63;;;24.75;86.05
47753;BME280;2038;51.728;6.674;2023-06-22T08:35:54;101023.69;;;24.77;86.11
47753;BME280;2038;51.728;6.674;2023-06-22T08:38:21;101029.09;;;24.89;85.94
47753;BME280;2038;51.728;6.674;2023-06-22T08:40:47;101014.44;;;24.98;85.66
47753;BME280;2038;51.728;6.674;2023-06-22T08:43:14;101006.72;;;25.12;85.05
47753;BME280;2038;51.728;6.674;2023-06-22T08:45:40;100993.69;;;25.10;84.11
47753;BME280;2038;51.728;6.674;2023-06-22T08:48:06;100994.69;;;25.23;84.52
47753;BME280;2038;51.728;6.674;2023-06-22T08:50:33;100987.00;;;25.38;82.96
47753;BME280;2038;51.728;6.674;2023-06-22T08:52:59;100978.31;;;25.39;83.40
47753;BME280;2038;51.728;6.674;2023-06-22T08:55:25;100975.00;;;25.55;82.86
47753;BME280;2038;51.728;6.674;2023-06-22T08:57:51;100986.34;;;25.62;82.17
47753;BME280;2038;51.728;6.674;2023-06-22T09:00:18;100994.13;;;25.56;83.24
47753;BME280;2038;51.728;6.674;2023-06-22T09:02:46;100985.53;;;25.69;82.40
47753;BME280;2038;51.728;6.674;2023-06-22T09:05:14;100999.63;;;25.88;81.84
47753;BME280;2038;51.728;6.674;2023-06-22T09:07:40;101001.41;;;25.95;82.02
47753;BME280;2038;51.728;6.674;2023-06-22T09:10:07;100995.16;;;25.73;82.00
47753;BME280;2038;51.728;6.674;2023-06-22T09:12:34;100997.81;;;25.79;81.37
47753;BME280;2038;51.728;6.674;2023-06-22T09:15:02;100987.34;;;25.75;81.72
47753;BME280;2038;51.728;6.674;2023-06-22T09:17:29;100988.16;;;25.72;81.54
47753;BME280;2038;51.728;6.674;2023-06-22T09:19:55;100983.75;;;25.65;82.01
47753;BME280;2038;51.728;6.674;2023-06-22T09:22:22;100985.50;;;25.63;81.72
47753;BME280;2038;51.728;6.674;2023-06-22T09:24:49;100999.44;;;25.64;82.58
47753;BME280;2038;51.728;6.674;2023-06-22T09:27:15;100994.16;;;25.60;83.14
47753;BME280;2038;51.728;6.674;2023-06-22T09:29:41;100989.81;;;25.61;83.12
47753;BME280;2038;51.728;6.674;2023-06-22T09:32:08;100987.28;;;25.67;83.01
47753;BME280;2038;51.728;6.674;2023-06-22T09:34:34;100984.72;;;25.75;82.97
47753;BME280;2038;51.728;6.674;2023-06-22T09:37:00;100976.81;;;25.69;83.42
47753;BME280;2038;51.728;6.674;2023-06-22T09:39:26;100972.50;;;25.68;83.25
47753;BME280;2038;51.728;6.674;2023-06-22T09:41:53;100973.38;;;25.73;82.68
47753;BME280;2038;51.728;6.674;2023-06-22T09:44:19;100966.53;;;25.88;82.71
47753;BME280;2038;51.728;6.674;2023-06-22T09:46:45;100963.06;;;25.91;82.71
47753;BME280;2038;51.728;6.674;2023-06-22T09:49:11;100970.91;;;25.91;82.34
47753;BME280;2038;51.728;6.674;2023-06-22T09:51:37;100963.13;;;25.98;82.02
47753;BME280;2038;51.728;6.674;2023-06-22T09:54:04;100958.78;;;26.02;81.63
47753;BME280;2038;51.728;6.674;2023-06-22T09:56:30;100963.09;;;26.00;80.96
47753;BME280;2038;51.728;6.674;2023-06-22T09:58:57;100953.63;;;26.11;80.78
47753;BME280;2038;51.728;6.674;2023-06-22T10:01:23;100964.06;;;26.14;81.92
47753;BME280;2038;51.728;6.674;2023-06-22T10:03:52;100951.94;;;26.19;81.75
47753;BME280;2038;51.728;6.674;2023-06-22T10:06:20;100954.56;;;26.22;81.00
47753;BME280;2038;51.728;6.674;2023-06-22T10:08:46;100968.50;;;26.24;81.22
47753;BME280;2038;51.728;6.674;2023-06-22T10:11:14;100976.38;;;26.26;81.61
47753;BME280;2038;51.728;6.674;2023-06-22T10:13:40;100973.75;;;26.26;81.21
47753;BME280;2038;51.728;6.674;2023-06-22T10:16:06;100973.72;;;26.20;81.32
47753;BME280;2038;51.728;6.674;2023-06-22T10:18:33;100977.13;;;26.11;81.58
47753;BME280;2038;51.728;6.674;2023-06-22T10:20:59;100972.69;;;26.01;81.47
47753;BME280;2038;51.728;6.674;2023-06-22T10:23:25;100969.19;;;25.94;82.23
47753;BME280;2038;51.728;6.674;2023-06-22T10:25:52;100968.22;;;25.82;82.37
47753;BME280;2038;51.728;6.674;2023-06-22T10:28:18;100958.53;;;25.69;83.07
47753;BME280;2038;51.728;6.674;2023-06-22T10:30:44;100956.84;;;25.72;83.25
47753;BME280;2038;51.728;6.674;2023-06-22T10:33:11;100950.63;;;25.55;84.27
47753;BME280;2038;51.728;6.674;2023-06-22T10:35:38;100942.00;;;25.64;83.87
47753;BME280;2038;51.728;6.674;2023-06-22T10:38:05;100935.06;;;25.67;84.43
47753;BME280;2038;51.728;6.674;2023-06-22T10:40:32;100929.88;;;25.73;84.08
47753;BME280;2038;51.728;6.674;2023-06-22T10:42:58;100925.53;;;25.74;84.21
47753;BME280;2038;51.728;6.674;2023-06-22T10:45:24;100914.19;;;25.67;84.95
47753;BME280;2038;51.728;6.674;2023-06-22T10:47:50;100919.44;;;25.75;84.70
47753;BME280;2038;51.728;6.674;2023-06-22T10:50:17;100925.53;;;25.77;84.65
47753;BME280;2038;51.728;6.674;2023-06-22T10:52:44;100923.88;;;25.89;84.15
47753;BME280;2038;51.728;6.674;2023-06-22T10:55:10;100912.56;;;25.90;83.79
47753;BME280;2038;51.728;6.674;2023-06-22T10:57:37;100919.53;;;25.93;83.83
47753;BME280;2038;51.728;6.674;2023-06-22T11:00:05;100921.25;;;25.83;84.38
47753;BME280;2038;51.728;6.674;2023-06-22T11:02:32;100915.13;;;25.81;84.53
47753;BME280;2038;51.728;6.674;2023-06-22T11:04:58;100918.63;;;25.83;84.60
47753;BME280;2038;51.728;6.674;2023-06-22T11:07:26;100922.06;;;25.81;84.74
47753;BME280;2038;51.728;6.674;2023-06-22T11:09:55;100912.50;;;25.81;84.72
47753;BME280;2038;51.728;6.674;2023-06-22T11:12:22;100920.38;;;25.83;85.13
47753;BME280;2038;51.728;6.674;2023-06-22T11:14:48;100922.94;;;25.81;85.08
47753;BME280;2038;51.728;6.674;2023-06-22T11:17:17;100922.09;;;25.85;84.75
47753;BME280;2038;51.728;6.674;2023-06-22T11:19:44;100932.53;;;25.82;84.95
47753;BME280;2038;51.728;6.674;2023-06-22T11:22:11;100922.06;;;25.81;85.30
47753;BME280;2038;51.728;6.674;2023-06-22T11:24:37;100921.19;;;25.80;85.32
47753;BME280;2038;51.728;6.674;2023-06-22T11:27:03;100928.16;;;25.77;85.28
47753;BME280;2038;51.728;6.674;2023-06-22T11:29:30;100922.97;;;25.84;85.47
47753;BME280;2038;51.728;6.674;2023-06-22T11:31:56;100917.75;;;25.83;85.07
47753;BME280;2038;51.728;6.674;2023-06-22T11:34:23;100906.47;;;25.87;85.41
47753;BME280;2038;51.728;6.674;2023-06-22T11:36:49;100905.56;;;25.86;85.07
47753;BME280;2038;51.728;6.674;2023-06-22T11:39:15;100904.72;;;25.87;84.97
47753;BME280;2038;51.728;6.674;2023-06-22T11:41:41;100903.03;;;26.04;84.17
47753;BME280;2038;51.728;6.674;2023-06-22T11:44:08;100902.19;;;26.02;84.56
47753;BME280;2038;51.728;6.674;2023-06-22T11:46:35;100904.63;;;25.74;85.44
47753;BME280;2038;51.728;6.674;2023-06-22T11:49:01;100896.72;;;25.65;85.88
47753;BME280;2038;51.728;6.674;2023-06-22T11:51:28;100893.19;;;25.53;88.42
47753;BME280;2038;51.728;6.674;2023-06-22T11:53:57;100894.81;;;25.42;90.06
47753;BME280;2038;51.728;6.674;2023-06-22T11:56:23;100903.41;;;25.29;91.46
47753;BME280;2038;51.728;6.674;2023-06-22T11:58:50;100892.78;;;25.08;93.77
47753;BME280;2038;51.728;6.674;2023-06-22T12:01:16;100899.59;;;24.91;95.96
47753;BME280;2038;51.728;6.674;2023-06-22T12:03:42;100889.75;;;24.68;99.05
47753;BME280;2038;51.728;6.674;2023-06-22T12:06:09;100896.53;;;24.53;100.00
47753;BME280;2038;51.728;6.674;2023-06-22T12:08:36;100898.16;;;24.42;100.00
47753;BME280;2038;51.728;6.674;2023-06-22T12:11:03;100894.63;;;24.35;100.00
47753;BME280;2038;51.728;6.674;2023-06-22T12:13:29;100887.66;;;24.34;100.00
47753;BME280;2038;51.728;6.674;2023-06-22T12:15:55;100887.72;;;24.39;100.00
47753;BME280;2038;51.728;6.674;2023-06-22T12:18:21;100880.78;;;24.41;100.00
47753;BME280;2038;51.728;6.674;2023-06-22T12:20:48;100870.34;;;24.39;100.00
47753;BME280;2038;51.728;6.674;2023-06-22T12:23:15;100868.56;;;24.35;100.00
47753;BME280;2038;51.728;6.674;2023-06-22T12:25:41;100859.03;;;24.37;100.00
47753;BME280;2038;51.728;6.674;2023-06-22T12:28:07;100864.25;;;24.37;100.00
47753;BME280;2038;51.728;6.674;2023-06-22T12:30:34;100872.03;;;24.36;100.00
47753;BME280;2038;51.728;6.674;2023-06-22T12:33:00;100866.03;;;24.44;100.00
47753;BME280;2038;51.728;6.674;2023-06-22T12:35:26;100861.75;;;24.48;100.00
47753;BME280;2038;51.728;6.674;2023-06-22T12:37:53;100847.81;;;24.44;100.00
47753;BME280;2038;51.728;6.674;2023-06-22T12:40:19;100839.84;;;24.31;100.00
47753;BME280;2038;51.728;6.674;2023-06-22T12:42:45;100839.81;;;24.28;100.00
47753;BME280;2038;51.728;6.674;2023-06-22T12:45:12;100833.69;;;24.22;100.00
47753;BME280;2038;51.728;6.674;2023-06-22T12:47:38;100839.69;;;24.17;100.00
47753;BME280;2038;51.728;6.674;2023-06-22T12:50:05;100847.53;;;24.18;100.00
47753;BME280;2038;51.728;6.674;2023-06-22T12:52:32;100842.47;;;24.31;100.00
47753;BME280;2038;51.728;6.674;2023-06-22T12:54:58;100843.47;;;24.43;100.00
47753;BME280;2038;51.728;6.674;2023-06-22T12:57:24;100838.34;;;24.52;100.00
47753;BME280;2038;51.728;6.674;2023-06-22T12:59:51;100832.25;;;24.52;100.00
47753;BME280;2038;51.728;6.674;2023-06-22T13:02:17;100827.09;;;24.56;100.00